sensor_id;sensor_type;location;lat;lon;timestamp;temperature;humidity
20803;DHT22;10562;-33.856;151.182;2023-04-06T00:01:08;19.30;99.90
20803;DHT22;10562;-33.856;151.182;2023-04-06T00:03:39;19.10;99.90
20803;DHT22;10562;-33.856;151.182;2023-04-06T00:06:13;19.10;99.90
20803;DHT22;10562;-33.856;151.182;2023-04-06T00:08:44;19.10;99.90
20803;DHT22;10562;-33.856;151.182;2023-04-06T00:11:15;19.10;99.90
20803;DHT22;10562;-33.856;151.182;2023-04-06T00:13:46;19.20;99.90
20803;DHT22;10562;-33.856;151.182;2023-04-06T00:16:17;19.20;99.90
20803;DHT22;10562;-33.856;151.182;2023-04-06T00:18:48;19.20;99.90
20803;DHT22;10562;-33.856;151.182;2023-04-06T00:21:20;19.30;99.90
20803;DHT22;10562;-33.856;151.182;2023-04-06T00:23:51;19.20;99.90
20803;DHT22;10562;-33.856;151.182;2023-04-06T00:26:22;19.10;99.90
20803;DHT22;10562;-33.856;151.182;2023-04-06T00:28:53;19.20;99.90
20803;DHT22;10562;-33.856;151.182;2023-04-06T00:31:23;19.40;99.90
20803;DHT22;10562;-33.856;151.182;2023-04-06T00:33:54;19.50;99.90
20803;DHT22;10562;-33.856;151.182;2023-04-06T00:36:27;19.50;99.90
20803;DHT22;10562;-33.856;151.182;2023-04-06T00:38:58;19.70;99.90
20803;DHT22;10562;-33.856;151.182;2023-04-06T00:41:28;19.80;99.90
20803;DHT22;10562;-33.856;151.182;2023-04-06T00:43:59;20.00;99.90
20803;DHT22;10562;-33.856;151.182;2023-04-06T00:46:30;20.20;99.90
20803;DHT22;10562;-33.856;151.182;2023-04-06T00:49:01;20.30;99.90
20803;DHT22;10562;-33.856;151.182;2023-04-06T00:51:34;20.40;99.90
20803;DHT22;10562;-33.856;151.182;2023-04-06T00:54:04;20.50;99.90
20803;DHT22;10562;-33.856;151.182;2023-04-06T00:56:36;20.70;99.90
20803;DHT22;10562;-33.856;151.182;2023-04-06T00:59:07;20.90;99.90
20803;DHT22;10562;-33.856;151.182;2023-04-06T01:01:37;21.10;99.90
20803;DHT22;10562;-33.856;151.182;2023-04-06T01:04:08;21.20;99.90
20803;DHT22;10562;-33.856;151.182;2023-04-06T01:06:41;21.30;99.90
20803;DHT22;10562;-33.856;151.182;2023-04-06T01:09:13;21.40;99.90
20803;DHT22;10562;-33.856;151.182;2023-04-06T01:11:43;21.30;99.90
20803;DHT22;10562;-33.856;151.182;2023-04-06T01:14:15;21.30;99.90
20803;DHT22;10562;-33.856;151.182;2023-04-06T01:16:46;21.30;99.90
20803;DHT22;10562;-33.856;151.182;2023-04-06T01:19:17;21.40;99.90
20803;DHT22;10562;-33.856;151.182;2023-04-06T01:21:50;21.60;99.90
20803;DHT22;10562;-33.856;151.182;2023-04-06T01:24:23;21.60;99.90
20803;DHT22;10562;-33.856;151.182;2023-04-06T01:26:54;21.70;99.90
20803;DHT22;10562;-33.856;151.182;2023-04-06T01:29:24;21.70;99.90
20803;DHT22;10562;-33.856;151.182;2023-04-06T01:31:55;21.50;99.90
20803;DHT22;10562;-33.856;151.182;2023-04-06T01:34:26;21.40;99.90
20803;DHT22;10562;-33.856;151.182;2023-04-06T01:36:57;21.30;99.90
20803;DHT22;10562;-33.856;151.182;2023-04-06T01:39:29;21.40;99.90
20803;DHT22;10562;-33.856;151.182;2023-04-06T01:42:00;21.50;99.90
20803;DHT22;10562;-33.856;151.182;2023-04-06T01:44:31;21.60;99.90
20803;DHT22;10562;-33.856;151.182;2023-04-06T01:47:02;21.70;99.90
20803;DHT22;10562;-33.856;151.182;2023-04-06T01:49:33;22.00;99.90
20803;DHT22;10562;-33.856;151.182;2023-04-06T01:52:03;22.20;99.90
20803;DHT22;10562;-33.856;151.182;2023-04-06T01:54:36;22.40;99.90
20803;DHT22;10562;-33.856;151.182;2023-04-06T01:57:07;22.60;99.90
20803;DHT22;10562;-33.856;151.182;2023-04-06T01:59:38;22.90;99.90
20803;DHT22;10562;-33.856;151.182;2023-04-06T02:02:08;23.20;99.90
20803;DHT22;10562;-33.856;151.182;2023-04-06T02:04:40;23.40;99.90
20803;DHT22;10562;-33.856;151.182;2023-04-06T02:07:11;23.60;99.90
20803;DHT22;10562;-33.856;151.182;2023-04-06T02:09:44;23.70;99.90
20803;DHT22;10562;-33.856;151.182;2023-04-06T02:12:15;23.70;99.90
20803;DHT22;10562;-33.856;151.182;2023-04-06T02:14:45;24.00;99.90
20803;DHT22;10562;-33.856;151.182;2023-04-06T02:17:16;24.00;99.90
20803;DHT22;10562;-33.856;151.182;2023-04-06T02:19:47;23.60;99.90
20803;DHT22;10562;-33.856;151.182;2023-04-06T02:22:18;23.50;99.90
20803;DHT22;10562;-33.856;151.182;2023-04-06T02:24:50;23.10;99.90
20803;DHT22;10562;-33.856;151.182;2023-04-06T02:27:22;23.00;99.90
20803;DHT22;10562;-33.856;151.182;2023-04-06T02:29:53;22.90;99.90
20803;DHT22;10562;-33.856;151.182;2023-04-06T02:32:24;23.10;99.90
20803;DHT22;10562;-33.856;151.182;2023-04-06T02:34:55;22.80;99.90
20803;DHT22;10562;-33.856;151.182;2023-04-06T02:37:25;22.90;99.90
20803;DHT22;10562;-33.856;151.182;2023-04-06T02:39:58;23.00;99.90
20803;DHT22;10562;-33.856;151.182;2023-04-06T02:42:29;23.30;99.90
20803;DHT22;10562;-33.856;151.182;2023-04-06T02:45:00;23.30;99.90
20803;DHT22;10562;-33.856;151.182;2023-04-06T02:47:30;23.10;99.90
20803;DHT22;10562;-33.856;151.182;2023-04-06T02:50:01;23.30;99.90
20803;DHT22;10562;-33.856;151.182;2023-04-06T02:52:32;23.30;99.90
20803;DHT22;10562;-33.856;151.182;2023-04-06T02:55:05;23.10;99.90
20803;DHT22;10562;-33.856;151.182;2023-04-06T02:57:36;23.30;99.90
20803;DHT22;10562;-33.856;151.182;2023-04-06T03:00:08;23.50;99.90
20803;DHT22;10562;-33.856;151.182;2023-04-06T03:02:39;23.50;99.90
20803;DHT22;10562;-33.856;151.182;2023-04-06T03:05:09;23.50;99.90
20803;DHT22;10562;-33.856;151.182;2023-04-06T03:07:40;23.30;99.90
20803;DHT22;10562;-33.856;151.182;2023-04-06T03:10:13;23.30;99.90
20803;DHT22;10562;-33.856;151.182;2023-04-06T03:12:44;23.40;99.90
20803;DHT22;10562;-33.856;151.182;2023-04-06T03:15:15;23.30;99.90
20803;DHT22;10562;-33.856;151.182;2023-04-06T03:17:46;23.20;99.90
20803;DHT22;10562;-33.856;151.182;2023-04-06T03:20:17;23.20;99.90
20803;DHT22;10562;-33.856;151.182;2023-04-06T03:22:48;23.30;99.90
20803;DHT22;10562;-33.856;151.182;2023-04-06T03:25:20;23.40;99.90
20803;DHT22;10562;-33.856;151.182;2023-04-06T03:27:51;23.40;99.90
20803;DHT22;10562;-33.856;151.182;2023-04-06T03:30:22;23.40;99.90
20803;DHT22;10562;-33.856;151.182;2023-04-06T03:32:54;23.50;99.90
20803;DHT22;10562;-33.856;151.182;2023-04-06T03:35:25;23.20;99.90
20803;DHT22;10562;-33.856;151.182;2023-04-06T03:37:55;23.00;99.90
20803;DHT22;10562;-33.856;151.182;2023-04-06T03:40:28;23.30;99.90
20803;DHT22;10562;-33.856;151.182;2023-04-06T03:42:59;23.30;99.90
20803;DHT22;10562;-33.856;151.182;2023-04-06T03:45:30;23.50;99.90
20803;DHT22;10562;-33.856;151.182;2023-04-06T03:48:01;23.60;99.90
20803;DHT22;10562;-33.856;151.182;2023-04-06T03:50:31;23.80;99.90
20803;DHT22;10562;-33.856;151.182;2023-04-06T03:53:02;23.40;99.90
20803;DHT22;10562;-33.856;151.182;2023-04-06T03:55:35;23.40;99.90
20803;DHT22;10562;-33.856;151.182;2023-04-06T03:58:06;23.20;99.90
20803;DHT22;10562;-33.856;151.182;2023-04-06T04:00:37;23.30;99.90
20803;DHT22;10562;-33.856;151.182;2023-04-06T04:03:07;23.00;99.90
20803;DHT22;10562;-33.856;151.182;2023-04-06T04:05:38;22.90;99.90
20803;DHT22;10562;-33.856;151.182;2023-04-06T04:08:09;22.80;99.90
20803;DHT22;10562;-33.856;151.182;2023-04-06T04:10:42;22.70;99.90
20803;DHT22;10562;-33.856;151.182;2023-04-06T04:13:13;22.80;99.90
20803;DHT22;10562;-33.856;151.182;2023-04-06T04:15:43;22.80;99.90
20803;DHT22;10562;-33.856;151.182;2023-04-06T04:18:15;22.90;99.90
20803;DHT22;10562;-33.856;151.182;2023-04-06T04:20:46;23.00;99.90
20803;DHT22;10562;-33.856;151.182;2023-04-06T04:23:16;23.10;99.90
20803;DHT22;10562;-33.856;151.182;2023-04-06T04:25:49;23.20;99.90
20803;DHT22;10562;-33.856;151.182;2023-04-06T04:28:20;23.20;99.90
20803;DHT22;10562;-33.856;151.182;2023-04-06T04:30:51;23.20;99.90
20803;DHT22;10562;-33.856;151.182;2023-04-06T04:33:23;23.40;99.90
20803;DHT22;10562;-33.856;151.182;2023-04-06T04:35:54;23.20;99.90
20803;DHT22;10562;-33.856;151.182;2023-04-06T04:38:24;23.20;99.90
20803;DHT22;10562;-33.856;151.182;2023-04-06T04:40:57;23.40;99.90
20803;DHT22;10562;-33.856;151.182;2023-04-06T04:43:28;23.50;99.90
20803;DHT22;10562;-33.856;151.182;2023-04-06T04:45:59;23.60;99.90
20803;DHT22;10562;-33.856;151.182;2023-04-06T04:48:29;23.70;99.90
20803;DHT22;10562;-33.856;151.182;2023-04-06T04:51:00;24.00;99.90
20803;DHT22;10562;-33.856;151.182;2023-04-06T04:53:31;24.20;99.90
20803;DHT22;10562;-33.856;151.182;2023-04-06T04:56:04;24.30;99.90
20803;DHT22;10562;-33.856;151.182;2023-04-06T04:58:35;24.40;99.90
20803;DHT22;10562;-33.856;151.182;2023-04-06T05:01:06;24.50;99.90
20803;DHT22;10562;-33.856;151.182;2023-04-06T05:03:38;24.40;99.90
20803;DHT22;10562;-33.856;151.182;2023-04-06T05:06:09;24.10;99.90
20803;DHT22;10562;-33.856;151.182;2023-04-06T05:08:40;24.10;99.90
20803;DHT22;10562;-33.856;151.182;2023-04-06T05:11:13;23.80;99.90
20803;DHT22;10562;-33.856;151.182;2023-04-06T05:13:44;23.70;99.90
20803;DHT22;10562;-33.856;151.182;2023-04-06T05:16:15;23.50;99.90
20803;DHT22;10562;-33.856;151.182;2023-04-06T05:18:46;23.30;99.90
20803;DHT22;10562;-33.856;151.182;2023-04-06T05:21:18;23.30;99.90
20803;DHT22;10562;-33.856;151.182;2023-04-06T05:23:49;23.30;99.90
20803;DHT22;10562;-33.856;151.182;2023-04-06T05:26:21;23.20;99.90
20803;DHT22;10562;-33.856;151.182;2023-04-06T05:28:53;23.20;99.90
20803;DHT22;10562;-33.856;151.182;2023-04-06T05:31:23;23.20;99.90
20803;DHT22;10562;-33.856;151.182;2023-04-06T05:33:54;23.20;99.90
20803;DHT22;10562;-33.856;151.182;2023-04-06T05:36:26;23.20;99.90
20803;DHT22;10562;-33.856;151.182;2023-04-06T05:38:57;23.20;99.90
20803;DHT22;10562;-33.856;151.182;2023-04-06T05:41:29;23.20;99.90
20803;DHT22;10562;-33.856;151.182;2023-04-06T05:44:00;23.10;99.90
20803;DHT22;10562;-33.856;151.182;2023-04-06T05:46:31;23.00;99.90
20803;DHT22;10562;-33.856;151.182;2023-04-06T05:49:02;23.00;99.90
20803;DHT22;10562;-33.856;151.182;2023-04-06T05:51:32;22.90;99.90
20803;DHT22;10562;-33.856;151.182;2023-04-06T05:54:03;22.90;99.90
20803;DHT22;10562;-33.856;151.182;2023-04-06T05:56:36;22.90;99.90
20803;DHT22;10562;-33.856;151.182;2023-04-06T05:59:07;22.80;99.90
20803;DHT22;10562;-33.856;151.182;2023-04-06T06:01:38;22.60;99.90
20803;DHT22;10562;-33.856;151.182;2023-04-06T06:04:08;22.70;99.90
20803;DHT22;10562;-33.856;151.182;2023-04-06T06:06:39;22.70;99.90
20803;DHT22;10562;-33.856;151.182;2023-04-06T06:09:10;22.70;99.90
20803;DHT22;10562;-33.856;151.182;2023-04-06T06:11:43;22.50;99.90
20803;DHT22;10562;-33.856;151.182;2023-04-06T06:14:13;22.50;99.90
20803;DHT22;10562;-33.856;151.182;2023-04-06T06:16:45;22.40;99.90
20803;DHT22;10562;-33.856;151.182;2023-04-06T06:19:15;22.40;99.90
20803;DHT22;10562;-33.856;151.182;2023-04-06T06:21:46;22.40;99.90
20803;DHT22;10562;-33.856;151.182;2023-04-06T06:24:17;22.40;99.90
20803;DHT22;10562;-33.856;151.182;2023-04-06T06:26:50;22.30;99.90
20803;DHT22;10562;-33.856;151.182;2023-04-06T06:29:20;22.30;99.90
20803;DHT22;10562;-33.856;151.182;2023-04-06T06:31:51;22.30;99.90
20803;DHT22;10562;-33.856;151.182;2023-04-06T06:34:22;22.20;99.90
20803;DHT22;10562;-33.856;151.182;2023-04-06T06:36:53;22.20;99.90
20803;DHT22;10562;-33.856;151.182;2023-04-06T06:39:24;22.10;99.90
20803;DHT22;10562;-33.856;151.182;2023-04-06T06:41:57;22.10;99.90
20803;DHT22;10562;-33.856;151.182;2023-04-06T06:44:29;22.00;99.90
20803;DHT22;10562;-33.856;151.182;2023-04-06T06:47:00;21.90;99.90
20803;DHT22;10562;-33.856;151.182;2023-04-06T06:49:30;21.90;99.90
20803;DHT22;10562;-33.856;151.182;2023-04-06T06:52:01;21.80;99.90
20803;DHT22;10562;-33.856;151.182;2023-04-06T06:54:33;21.70;99.90
20803;DHT22;10562;-33.856;151.182;2023-04-06T06:57:06;21.70;99.90
20803;DHT22;10562;-33.856;151.182;2023-04-06T06:59:37;21.60;99.90
20803;DHT22;10562;-33.856;151.182;2023-04-06T07:02:08;21.60;99.90
20803;DHT22;10562;-33.856;151.182;2023-04-06T07:04:40;21.40;99.90
20803;DHT22;10562;-33.856;151.182;2023-04-06T07:07:11;21.50;99.90
20803;DHT22;10562;-33.856;151.182;2023-04-06T07:09:41;21.40;99.90
20803;DHT22;10562;-33.856;151.182;2023-04-06T07:12:14;21.30;99.90
20803;DHT22;10562;-33.856;151.182;2023-04-06T07:14:45;21.20;99.90
20803;DHT22;10562;-33.856;151.182;2023-04-06T07:17:16;21.20;99.90
20803;DHT22;10562;-33.856;151.182;2023-04-06T07:19:47;21.20;99.90
20803;DHT22;10562;-33.856;151.182;2023-04-06T07:22:18;21.10;99.90
20803;DHT22;10562;-33.856;151.182;2023-04-06T07:24:49;21.00;99.90
20803;DHT22;10562;-33.856;151.182;2023-04-06T07:27:21;21.00;99.90
20803;DHT22;10562;-33.856;151.182;2023-04-06T07:29:52;20.90;99.90
20803;DHT22;10562;-33.856;151.182;2023-04-06T07:32:23;20.90;99.90
20803;DHT22;10562;-33.856;151.182;2023-04-06T07:34:54;20.80;99.90
20803;DHT22;10562;-33.856;151.182;2023-04-06T07:37:24;20.70;99.90
20803;DHT22;10562;-33.856;151.182;2023-04-06T07:39:55;20.60;99.90
20803;DHT22;10562;-33.856;151.182;2023-04-06T07:42:28;20.60;99.90
20803;DHT22;10562;-33.856;151.182;2023-04-06T07:44:59;20.50;99.90
20803;DHT22;10562;-33.856;151.182;2023-04-06T07:47:30;20.50;99.90
20803;DHT22;10562;-33.856;151.182;2023-04-06T07:50:01;20.40;99.90
20803;DHT22;10562;-33.856;151.182;2023-04-06T07:52:32;20.30;99.90
20803;DHT22;10562;-33.856;151.182;2023-04-06T07:55:03;20.20;99.90
20803;DHT22;10562;-33.856;151.182;2023-04-06T07:57:36;20.10;99.90
20803;DHT22;10562;-33.856;151.182;2023-04-06T08:00:08;20.00;99.90
20803;DHT22;10562;-33.856;151.182;2023-04-06T08:02:39;19.90;99.90
20803;DHT22;10562;-33.856;151.182;2023-04-06T08:05:10;19.80;99.90
20803;DHT22;10562;-33.856;151.182;2023-04-06T08:07:41;19.60;99.90
20803;DHT22;10562;-33.856;151.182;2023-04-06T08:10:12;19.60;99.90
20803;DHT22;10562;-33.856;151.182;2023-04-06T08:12:44;19.50;99.90
20803;DHT22;10562;-33.856;151.182;2023-04-06T08:15:15;19.40;99.90
20803;DHT22;10562;-33.856;151.182;2023-04-06T08:17:47;19.30;99.90
20803;DHT22;10562;-33.856;151.182;2023-04-06T08:20:17;19.20;99.90
20803;DHT22;10562;-33.856;151.182;2023-04-06T08:22:48;19.20;99.90
20803;DHT22;10562;-33.856;151.182;2023-04-06T08:25:19;19.10;99.90
20803;DHT22;10562;-33.856;151.182;2023-04-06T08:27:52;19.10;99.90
20803;DHT22;10562;-33.856;151.182;2023-04-06T08:30:22;19.00;99.90
20803;DHT22;10562;-33.856;151.182;2023-04-06T08:32:56;18.90;99.90
20803;DHT22;10562;-33.856;151.182;2023-04-06T08:35:28;18.90;99.90
20803;DHT22;10562;-33.856;151.182;2023-04-06T08:37:58;18.80;99.90
20803;DHT22;10562;-33.856;151.182;2023-04-06T08:40:29;18.70;99.90
20803;DHT22;10562;-33.856;151.182;2023-04-06T08:43:03;18.70;99.90
20803;DHT22;10562;-33.856;151.182;2023-04-06T08:45:38;18.70;99.90
20803;DHT22;10562;-33.856;151.182;2023-04-06T08:48:09;18.70;99.90
20803;DHT22;10562;-33.856;151.182;2023-04-06T08:50:42;18.70;99.90
20803;DHT22;10562;-33.856;151.182;2023-04-06T08:53:13;18.60;99.90
20803;DHT22;10562;-33.856;151.182;2023-04-06T08:55:44;18.60;99.90
20803;DHT22;10562;-33.856;151.182;2023-04-06T08:58:17;18.60;99.90
20803;DHT22;10562;-33.856;151.182;2023-04-06T09:00:49;18.50;99.90
20803;DHT22;10562;-33.856;151.182;2023-04-06T09:03:21;18.60;99.90
20803;DHT22;10562;-33.856;151.182;2023-04-06T09:05:53;18.50;99.90
20803;DHT22;10562;-33.856;151.182;2023-04-06T09:08:24;18.40;99.90
20803;DHT22;10562;-33.856;151.182;2023-04-06T09:10:55;18.40;99.90
20803;DHT22;10562;-33.856;151.182;2023-04-06T09:13:27;18.40;99.90
20803;DHT22;10562;-33.856;151.182;2023-04-06T09:16:02;18.30;99.90
20803;DHT22;10562;-33.856;151.182;2023-04-06T09:18:33;18.30;99.90
20803;DHT22;10562;-33.856;151.182;2023-04-06T09:21:06;18.30;99.90
20803;DHT22;10562;-33.856;151.182;2023-04-06T09:23:38;18.20;99.90
20803;DHT22;10562;-33.856;151.182;2023-04-06T09:26:10;18.10;99.90
20803;DHT22;10562;-33.856;151.182;2023-04-06T09:28:47;18.10;99.90
20803;DHT22;10562;-33.856;151.182;2023-04-06T09:31:23;18.00;99.90
20803;DHT22;10562;-33.856;151.182;2023-04-06T09:33:55;18.00;99.90
20803;DHT22;10562;-33.856;151.182;2023-04-06T09:36:32;17.90;99.90
20803;DHT22;10562;-33.856;151.182;2023-04-06T09:39:04;17.90;99.90
20803;DHT22;10562;-33.856;151.182;2023-04-06T09:41:35;17.80;99.90
20803;DHT22;10562;-33.856;151.182;2023-04-06T09:44:10;17.80;99.90
20803;DHT22;10562;-33.856;151.182;2023-04-06T09:46:44;17.80;99.90
20803;DHT22;10562;-33.856;151.182;2023-04-06T09:49:15;17.70;99.90
20803;DHT22;10562;-33.856;151.182;2023-04-06T09:51:52;17.70;99.90
20803;DHT22;10562;-33.856;151.182;2023-04-06T09:54:24;17.60;99.90
20803;DHT22;10562;-33.856;151.182;2023-04-06T09:57:05;17.60;99.90
20803;DHT22;10562;-33.856;151.182;2023-04-06T09:59:50;17.60;99.90
20803;DHT22;10562;-33.856;151.182;2023-04-06T10:02:32;17.60;99.90
20803;DHT22;10562;-33.856;151.182;2023-04-06T10:05:09;17.50;99.90
20803;DHT22;10562;-33.856;151.182;2023-04-06T10:07:41;17.40;99.90
20803;DHT22;10562;-33.856;151.182;2023-04-06T10:10:12;17.40;99.90
20803;DHT22;10562;-33.856;151.182;2023-04-06T10:12:45;17.40;99.90
20803;DHT22;10562;-33.856;151.182;2023-04-06T10:15:20;17.30;99.90
20803;DHT22;10562;-33.856;151.182;2023-04-06T10:17:51;17.30;99.90
20803;DHT22;10562;-33.856;151.182;2023-04-06T10:20:25;17.30;99.90
20803;DHT22;10562;-33.856;151.182;2023-04-06T10:23:02;17.30;99.90
20803;DHT22;10562;-33.856;151.182;2023-04-06T10:25:35;17.20;99.90
20803;DHT22;10562;-33.856;151.182;2023-04-06T10:28:07;17.20;99.90
20803;DHT22;10562;-33.856;151.182;2023-04-06T10:30:43;17.10;99.90
20803;DHT22;10562;-33.856;151.182;2023-04-06T10:33:15;17.20;99.90
20803;DHT22;10562;-33.856;151.182;2023-04-06T10:35:46;17.10;99.90
20803;DHT22;10562;-33.856;151.182;2023-04-06T10:38:16;17.10;99.90
20803;DHT22;10562;-33.856;151.182;2023-04-06T10:40:49;17.10;99.90
20803;DHT22;10562;-33.856;151.182;2023-04-06T10:43:21;17.30;99.90
20803;DHT22;10562;-33.856;151.182;2023-04-06T10:45:59;17.20;99.90
20803;DHT22;10562;-33.856;151.182;2023-04-06T10:48:38;17.20;99.90
20803;DHT22;10562;-33.856;151.182;2023-04-06T10:51:11;17.20;99.90
20803;DHT22;10562;-33.856;151.182;2023-04-06T10:53:42;17.10;99.90
20803;DHT22;10562;-33.856;151.182;2023-04-06T10:56:15;17.10;99.90
20803;DHT22;10562;-33.856;151.182;2023-04-06T10:58:46;17.10;99.90
20803;DHT22;10562;-33.856;151.182;2023-04-06T11:01:20;17.10;99.90
20803;DHT22;10562;-33.856;151.182;2023-04-06T11:03:53;17.10;99.90
20803;DHT22;10562;-33.856;151.182;2023-04-06T11:06:26;17.00;99.90
20803;DHT22;10562;-33.856;151.182;2023-04-06T11:08:59;17.00;99.90
20803;DHT22;10562;-33.856;151.182;2023-04-06T11:11:30;17.00;99.90
20803;DHT22;10562;-33.856;151.182;2023-04-06T11:14:00;17.00;99.90
20803;DHT22;10562;-33.856;151.182;2023-04-06T11:16:34;16.90;99.90
20803;DHT22;10562;-33.856;151.182;2023-04-06T11:19:05;16.90;99.90
20803;DHT22;10562;-33.856;151.182;2023-04-06T11:21:37;16.90;99.90
20803;DHT22;10562;-33.856;151.182;2023-04-06T11:24:10;16.90;99.90
20803;DHT22;10562;-33.856;151.182;2023-04-06T11:26:42;17.00;99.90
20803;DHT22;10562;-33.856;151.182;2023-04-06T11:29:15;16.90;99.90
20803;DHT22;10562;-33.856;151.182;2023-04-06T11:31:50;16.90;99.90
20803;DHT22;10562;-33.856;151.182;2023-04-06T11:34:22;16.80;99.90
20803;DHT22;10562;-33.856;151.182;2023-04-06T11:36:56;16.80;99.90
20803;DHT22;10562;-33.856;151.182;2023-04-06T11:39:28;16.80;99.90
20803;DHT22;10562;-33.856;151.182;2023-04-06T11:42:01;16.80;99.90
20803;DHT22;10562;-33.856;151.182;2023-04-06T11:44:34;16.80;99.90
20803;DHT22;10562;-33.856;151.182;2023-04-06T11:47:10;16.80;99.90
20803;DHT22;10562;-33.856;151.182;2023-04-06T11:49:41;16.70;99.90
20803;DHT22;10562;-33.856;151.182;2023-04-06T11:52:23;16.70;99.90
20803;DHT22;10562;-33.856;151.182;2023-04-06T11:54:55;16.70;99.90
20803;DHT22;10562;-33.856;151.182;2023-04-06T11:57:26;16.70;99.90
20803;DHT22;10562;-33.856;151.182;2023-04-06T11:59:57;16.60;99.90
20803;DHT22;10562;-33.856;151.182;2023-04-06T12:02:29;16.70;99.90
20803;DHT22;10562;-33.856;151.182;2023-04-06T12:05:00;16.70;99.90
20803;DHT22;10562;-33.856;151.182;2023-04-06T12:07:31;16.70;99.90
20803;DHT22;10562;-33.856;151.182;2023-04-06T12:10:03;16.70;99.90
20803;DHT22;10562;-33.856;151.182;2023-04-06T12:12:34;16.70;99.90
20803;DHT22;10562;-33.856;151.182;2023-04-06T12:15:05;16.70;99.90
20803;DHT22;10562;-33.856;151.182;2023-04-06T12:17:38;16.70;99.90
20803;DHT22;10562;-33.856;151.182;2023-04-06T12:20:09;16.80;99.90
20803;DHT22;10562;-33.856;151.182;2023-04-06T12:22:41;16.90;99.90
20803;DHT22;10562;-33.856;151.182;2023-04-06T12:25:11;16.90;99.90
20803;DHT22;10562;-33.856;151.182;2023-04-06T12:27:42;17.00;99.90
20803;DHT22;10562;-33.856;151.182;2023-04-06T12:30:13;17.20;99.90
20803;DHT22;10562;-33.856;151.182;2023-04-06T12:32:46;17.30;99.90
20803;DHT22;10562;-33.856;151.182;2023-04-06T12:35:17;17.20;99.90
20803;DHT22;10562;-33.856;151.182;2023-04-06T12:37:48;17.20;99.90
20803;DHT22;10562;-33.856;151.182;2023-04-06T12:40:19;17.20;99.90
20803;DHT22;10562;-33.856;151.182;2023-04-06T12:42:50;17.10;99.90
20803;DHT22;10562;-33.856;151.182;2023-04-06T12:45:24;17.10;99.90
20803;DHT22;10562;-33.856;151.182;2023-04-06T12:47:57;17.00;99.90
20803;DHT22;10562;-33.856;151.182;2023-04-06T12:50:27;17.00;99.90
20803;DHT22;10562;-33.856;151.182;2023-04-06T12:52:58;16.90;99.90
20803;DHT22;10562;-33.856;151.182;2023-04-06T12:55:31;16.90;99.90
20803;DHT22;10562;-33.856;151.182;2023-04-06T12:58:04;16.90;99.90
20803;DHT22;10562;-33.856;151.182;2023-04-06T13:00:34;16.80;99.90
20803;DHT22;10562;-33.856;151.182;2023-04-06T13:03:07;16.80;99.90
20803;DHT22;10562;-33.856;151.182;2023-04-06T13:05:44;16.80;99.90
20803;DHT22;10562;-33.856;151.182;2023-04-06T13:08:15;16.80;99.90
20803;DHT22;10562;-33.856;151.182;2023-04-06T13:10:48;16.70;99.90
20803;DHT22;10562;-33.856;151.182;2023-04-06T13:13:22;16.70;99.90
20803;DHT22;10562;-33.856;151.182;2023-04-06T13:15:54;16.70;99.90
20803;DHT22;10562;-33.856;151.182;2023-04-06T13:18:27;16.70;99.90
20803;DHT22;10562;-33.856;151.182;2023-04-06T13:20:58;16.60;99.90
20803;DHT22;10562;-33.856;151.182;2023-04-06T13:23:29;16.60;99.90
20803;DHT22;10562;-33.856;151.182;2023-04-06T13:26:01;16.60;99.90
20803;DHT22;10562;-33.856;151.182;2023-04-06T13:28:32;16.60;99.90
20803;DHT22;10562;-33.856;151.182;2023-04-06T13:31:05;16.60;99.90
20803;DHT22;10562;-33.856;151.182;2023-04-06T13:33:38;16.50;99.90
20803;DHT22;10562;-33.856;151.182;2023-04-06T13:36:09;16.60;99.90
20803;DHT22;10562;-33.856;151.182;2023-04-06T13:38:40;16.70;99.90
20803;DHT22;10562;-33.856;151.182;2023-04-06T13:41:11;16.70;99.90
20803;DHT22;10562;-33.856;151.182;2023-04-06T13:43:48;16.50;99.90
20803;DHT22;10562;-33.856;151.182;2023-04-06T13:46:19;16.50;99.90
20803;DHT22;10562;-33.856;151.182;2023-04-06T13:48:53;16.50;99.90
20803;DHT22;10562;-33.856;151.182;2023-04-06T13:51:24;16.40;99.90
20803;DHT22;10562;-33.856;151.182;2023-04-06T13:53:55;16.40;99.90
20803;DHT22;10562;-33.856;151.182;2023-04-06T13:56:26;16.40;99.90
20803;DHT22;10562;-33.856;151.182;2023-04-06T13:58:57;16.30;99.90
20803;DHT22;10562;-33.856;151.182;2023-04-06T14:01:28;16.30;99.90
20803;DHT22;10562;-33.856;151.182;2023-04-06T14:04:00;16.30;99.90
20803;DHT22;10562;-33.856;151.182;2023-04-06T14:06:31;16.20;99.90
20803;DHT22;10562;-33.856;151.182;2023-04-06T14:09:02;16.20;99.90
20803;DHT22;10562;-33.856;151.182;2023-04-06T14:11:33;16.20;99.90
20803;DHT22;10562;-33.856;151.182;2023-04-06T14:14:05;16.20;99.90
20803;DHT22;10562;-33.856;151.182;2023-04-06T14:16:36;16.10;99.90
20803;DHT22;10562;-33.856;151.182;2023-04-06T14:19:09;16.10;99.90
20803;DHT22;10562;-33.856;151.182;2023-04-06T14:21:41;16.10;99.90
20803;DHT22;10562;-33.856;151.182;2023-04-06T14:24:12;16.10;99.90
20803;DHT22;10562;-33.856;151.182;2023-04-06T14:26:43;16.10;99.90
20803;DHT22;10562;-33.856;151.182;2023-04-06T14:29:14;16.10;99.90
20803;DHT22;10562;-33.856;151.182;2023-04-06T14:31:47;16.10;99.90
20803;DHT22;10562;-33.856;151.182;2023-04-06T14:34:19;16.10;99.90
20803;DHT22;10562;-33.856;151.182;2023-04-06T14:36:50;16.10;99.90
20803;DHT22;10562;-33.856;151.182;2023-04-06T14:39:21;16.00;99.90
20803;DHT22;10562;-33.856;151.182;2023-04-06T14:41:52;16.00;99.90
20803;DHT22;10562;-33.856;151.182;2023-04-06T14:44:22;16.00;99.90
20803;DHT22;10562;-33.856;151.182;2023-04-06T14:46:53;16.00;99.90
20803;DHT22;10562;-33.856;151.182;2023-04-06T14:49:26;16.00;99.90
20803;DHT22;10562;-33.856;151.182;2023-04-06T14:51:57;16.00;99.90
20803;DHT22;10562;-33.856;151.182;2023-04-06T14:54:29;16.00;99.90
20803;DHT22;10562;-33.856;151.182;2023-04-06T14:57:00;16.00;99.90
20803;DHT22;10562;-33.856;151.182;2023-04-06T14:59:31;16.10;99.90
20803;DHT22;10562;-33.856;151.182;2023-04-06T15:02:03;16.30;99.90
20803;DHT22;10562;-33.856;151.182;2023-04-06T15:04:38;16.40;99.90
20803;DHT22;10562;-33.856;151.182;2023-04-06T15:07:09;16.40;99.90
20803;DHT22;10562;-33.856;151.182;2023-04-06T15:09:40;16.50;99.90
20803;DHT22;10562;-33.856;151.182;2023-04-06T15:12:11;16.50;99.90
20803;DHT22;10562;-33.856;151.182;2023-04-06T15:14:42;16.50;99.90